Time;durP1;ratioP1;P1;durP2;ratioP2;P2;SDS_P1;SDS_P2;PMS_P1;PMS_P2;Temp;Humidity;BMP_temperature;BMP_pressure;BME280_temperature;BME280_humidity;BME280_pressure;Samples;Min_cycle;Max_cycle;Signal;HPM_P1;HPM_P2
2023/04/22 00:01:42;;;;;;;3.53;2.60;;;;;;;;;;5112175;28;20076;-61
2023/04/22 00:04:08;;;;;;;4.05;3.15;;;;;;;;;;5112245;28;20546;-60
2023/04/22 00:06:34;;;;;;;2.85;2.33;;;;;;;;;;5112002;28;20024;-61
2023/04/22 00:09:00;;;;;;;3.63;2.97;;;;;;;;;;5112205;28;20028;-61
2023/04/22 00:11:26;;;;;;;3.08;2.60;;;;;;;;;;5112396;28;20077;-61
2023/04/22 00:13:52;;;;;;;3.40;2.50;;;;;;;;;;5111254;28;20437;-61
2023/04/22 00:16:18;;;;;;;2.60;2.40;;;;;;;;;;5112072;28;20030;-61
2023/04/22 00:18:45;;;;;;;3.00;2.40;;;;;;;;;;5111825;28;20024;-60
2023/04/22 00:21:11;;;;;;;3.15;2.40;;;;;;;;;;5111774;28;20035;-61
2023/04/22 00:23:37;;;;;;;2.80;2.25;;;;;;;;;;5111507;28;20119;-60
2023/04/22 00:26:03;;;;;;;3.92;3.10;;;;;;;;;;5111447;28;20361;-61
2023/04/22 00:28:29;;;;;;;3.63;3.03;;;;;;;;;;5112046;28;20020;-60
2023/04/22 00:30:55;;;;;;;3.45;2.83;;;;;;;;;;5112165;28;20480;-61
2023/04/22 00:33:21;;;;;;;3.47;2.80;;;;;;;;;;5111385;28;20475;-61
2023/04/22 00:35:47;;;;;;;3.50;2.63;;;;;;;;;;5111493;28;20031;-61
2023/04/22 00:38:13;;;;;;;2.95;2.53;;;;;;;;;;5111108;28;20024;-61
2023/04/22 00:40:39;;;;;;;3.80;2.80;;;;;;;;;;5111431;28;20028;-60
2023/04/22 00:43:05;;;;;;;2.63;2.33;;;;;;;;;;5111643;28;20142;-61
2023/04/22 00:45:31;;;;;;;4.18;2.90;;;;;;;;;;5111342;28;20444;-60
2023/04/22 00:47:57;;;;;;;4.25;2.65;;;;;;;;;;5111916;28;20213;-60
2023/04/22 00:50:23;;;;;;;4.18;3.03;;;;;;;;;;5111519;28;20045;-60
2023/04/22 00:52:49;;;;;;;3.55;2.72;;;;;;;;;;5111173;28;20808;-60
2023/04/22 00:55:15;;;;;;;3.50;2.83;;;;;;;;;;5111408;28;20023;-60
2023/04/22 00:57:42;;;;;;;3.78;3.20;;;;;;;;;;5109999;28;20020;-60
2023/04/22 01:00:09;;;;;;;4.93;3.30;;;;;;;;;;5111570;28;20391;-60
2023/04/22 01:02:36;;;;;;;3.20;2.60;;;;;;;;;;5111801;28;20077;-60
2023/04/22 01:05:02;;;;;;;3.65;2.97;;;;;;;;;;5115765;28;20035;-60
2023/04/22 01:07:28;;;;;;;3.85;3.25;;;;;;;;;;5115525;28;20085;-60
2023/04/22 01:09:54;;;;;;;3.90;3.20;;;;;;;;;;5115905;28;20475;-60
2023/04/22 01:12:20;;;;;;;3.33;2.63;;;;;;;;;;5115630;28;20020;-60
2023/04/22 01:14:46;;;;;;;3.63;3.05;;;;;;;;;;5115396;28;20064;-60
2023/04/22 01:17:13;;;;;;;3.65;3.20;;;;;;;;;;5115603;28;20105;-61
2023/04/22 01:19:40;;;;;;;4.20;3.38;;;;;;;;;;5115062;28;20098;-61
2023/04/22 01:22:07;;;;;;;3.55;3.20;;;;;;;;;;5115113;28;20043;-60
2023/04/22 01:24:33;;;;;;;3.92;3.22;;;;;;;;;;5114904;28;20496;-60
2023/04/22 01:26:59;;;;;;;4.45;3.47;;;;;;;;;;5115364;28;20023;-60
2023/04/22 01:29:25;;;;;;;4.95;3.55;;;;;;;;;;5115639;28;20027;-60
2023/04/22 01:31:52;;;;;;;3.85;3.15;;;;;;;;;;5114452;27;20511;-60
2023/04/22 01:34:18;;;;;;;4.07;3.50;;;;;;;;;;5115230;28;20028;-61
2023/04/22 01:36:44;;;;;;;3.65;3.08;;;;;;;;;;5114964;28;20023;-60
2023/04/22 01:39:10;;;;;;;4.13;3.30;;;;;;;;;;5115130;28;20057;-60
2023/04/22 01:41:36;;;;;;;4.10;3.50;;;;;;;;;;5114843;28;20095;-60
2023/04/22 01:44:03;;;;;;;3.47;3.00;;;;;;;;;;5114943;28;20107;-60
2023/04/22 01:46:29;;;;;;;3.85;3.15;;;;;;;;;;5114503;27;20391;-60
2023/04/22 01:48:55;;;;;;;3.80;3.35;;;;;;;;;;5115123;28;20059;-60
2023/04/22 01:51:25;;;;;;;4.82;3.60;;;;;;;;;;5114305;27;20016;-60
2023/04/22 01:53:50;;;;;;;4.40;3.60;;;;;;;;;;5114700;28;20058;-60
2023/04/22 01:56:17;;;;;;;4.25;3.60;;;;;;;;;;5114848;28;20020;-60
2023/04/22 01:58:43;;;;;;;4.50;3.50;;;;;;;;;;5114549;28;20471;-60
2023/04/22 02:01:10;;;;;;;5.57;3.53;;;;;;;;;;5114689;27;20020;-60
2023/04/22 02:03:36;;;;;;;4.07;3.53;;;;;;;;;;5114378;28;20063;-60
2023/04/22 02:06:02;;;;;;;4.47;3.28;;;;;;;;;;5114174;28;20081;-61
2023/04/22 02:08:28;;;;;;;3.63;3.28;;;;;;;;;;5114900;28;20085;-60
2023/04/22 02:10:54;;;;;;;5.00;3.80;;;;;;;;;;5114040;28;20028;-61
2023/04/22 02:13:20;;;;;;;4.57;3.88;;;;;;;;;;5114434;28;20098;-60
2023/04/22 02:15:46;;;;;;;4.60;3.60;;;;;;;;;;5114206;28;20052;-60
2023/04/22 02:18:12;;;;;;;3.78;3.25;;;;;;;;;;5114394;27;20027;-61
2023/04/22 02:20:38;;;;;;;4.63;3.65;;;;;;;;;;5113953;28;20097;-61
2023/04/22 02:23:05;;;;;;;4.50;3.70;;;;;;;;;;5114255;28;20463;-61
2023/04/22 02:25:31;;;;;;;4.57;3.58;;;;;;;;;;5113609;28;20044;-61
2023/04/22 02:27:57;;;;;;;4.15;3.30;;;;;;;;;;5114520;28;20085;-60
2023/04/22 02:30:23;;;;;;;4.82;3.53;;;;;;;;;;5114136;28;20031;-60
2023/04/22 02:32:49;;;;;;;5.03;3.75;;;;;;;;;;5113841;28;20482;-61
2023/04/22 02:35:15;;;;;;;5.53;3.88;;;;;;;;;;5114035;28;20028;-60
2023/04/22 02:37:41;;;;;;;4.78;3.92;;;;;;;;;;5113224;27;20355;-60
2023/04/22 02:40:07;;;;;;;5.28;3.67;;;;;;;;;;5113908;28;20031;-60
2023/04/22 02:42:34;;;;;;;4.55;3.75;;;;;;;;;;5113679;28;20028;-61
2023/04/22 02:45:00;;;;;;;3.70;3.30;;;;;;;;;;5113802;28;20043;-60
2023/04/22 02:47:26;;;;;;;5.05;3.63;;;;;;;;;;5114178;28;20019;-60
2023/04/22 02:49:52;;;;;;;5.10;4.03;;;;;;;;;;5113565;28;20031;-60
2023/04/22 02:52:18;;;;;;;3.55;3.13;;;;;;;;;;5113274;28;20051;-60
2023/04/22 02:54:44;;;;;;;4.40;3.90;;;;;;;;;;5112967;27;20465;-60
2023/04/22 02:57:10;;;;;;;4.25;3.53;;;;;;;;;;5113738;28;20028;-60
2023/04/22 02:59:36;;;;;;;4.07;3.38;;;;;;;;;;5113281;28;20360;-60
2023/04/22 03:02:02;;;;;;;4.07;3.40;;;;;;;;;;5113589;28;20434;-61
2023/04/22 03:04:28;;;;;;;3.85;3.10;;;;;;;;;;5113549;28;20039;-60
2023/04/22 03:06:55;;;;;;;4.72;3.50;;;;;;;;;;5113024;28;20073;-60
2023/04/22 03:09:21;;;;;;;3.92;3.28;;;;;;;;;;5113356;28;20055;-60
2023/04/22 03:11:47;;;;;;;5.38;4.07;;;;;;;;;;5113218;28;20024;-61
2023/04/22 03:14:13;;;;;;;3.45;2.95;;;;;;;;;;5113260;28;20039;-61
2023/04/22 03:16:39;;;;;;;3.95;3.05;;;;;;;;;;5112947;28;20098;-61
2023/04/22 03:19:05;;;;;;;3.95;3.20;;;;;;;;;;5112996;28;20028;-61
2023/04/22 03:21:31;;;;;;;5.30;3.85;;;;;;;;;;5112266;27;20498;-61
2023/04/22 03:23:58;;;;;;;4.68;3.83;;;;;;;;;;5113245;28;20544;-61
2023/04/22 03:26:24;;;;;;;4.88;3.28;;;;;;;;;;5112746;28;20099;-61
2023/04/22 03:28:50;;;;;;;4.68;3.90;;;;;;;;;;5112886;28;20463;-61
2023/04/22 03:31:16;;;;;;;4.50;3.47;;;;;;;;;;5112244;28;20035;-61
2023/04/22 03:33:42;;;;;;;3.63;3.20;;;;;;;;;;5112518;28;20015;-61
2023/04/22 03:36:08;;;;;;;4.38;3.47;;;;;;;;;;5112972;27;20479;-61
2023/04/22 03:38:34;;;;;;;5.40;3.55;;;;;;;;;;5112657;28;20026;-61
2023/04/22 03:41:00;;;;;;;3.33;3.03;;;;;;;;;;5112775;28;20506;-60
2023/04/22 03:43:26;;;;;;;3.80;3.20;;;;;;;;;;5112914;28;20035;-60
2023/04/22 03:45:52;;;;;;;3.53;3.15;;;;;;;;;;5111934;28;20070;-61
2023/04/22 03:48:18;;;;;;;3.75;3.33;;;;;;;;;;5112518;28;20490;-60
2023/04/22 03:50:44;;;;;;;3.92;3.20;;;;;;;;;;5112400;28;20054;-61
2023/04/22 03:53:10;;;;;;;4.28;3.25;;;;;;;;;;5112428;28;20024;-61
2023/04/22 03:55:36;;;;;;;4.60;3.58;;;;;;;;;;5112265;28;20031;-60
2023/04/22 03:58:02;;;;;;;4.72;3.78;;;;;;;;;;5112488;28;20395;-60
2023/04/22 04:00:28;;;;;;;3.67;3.25;;;;;;;;;;5112213;28;20154;-61
2023/04/22 04:02:54;;;;;;;3.65;3.30;;;;;;;;;;5112361;28;20491;-60
2023/04/22 04:05:20;;;;;;;4.30;3.42;;;;;;;;;;5112093;28;20048;-61
2023/04/22 04:07:46;;;;;;;4.03;3.30;;;;;;;;;;5112064;28;20019;-61
2023/04/22 04:10:12;;;;;;;4.25;3.38;;;;;;;;;;5112199;28;20106;-61
2023/04/22 04:12:38;;;;;;;4.47;3.38;;;;;;;;;;5111989;28;20023;-61
2023/04/22 04:15:05;;;;;;;4.45;3.38;;;;;;;;;;5111436;28;20023;-61
2023/04/22 04:17:31;;;;;;;3.28;2.65;;;;;;;;;;5111709;28;20084;-61
2023/04/22 04:19:57;;;;;;;4.13;3.67;;;;;;;;;;5112315;27;20036;-61
2023/04/22 04:22:23;;;;;;;5.57;3.65;;;;;;;;;;5112046;28;20088;-61
2023/04/22 04:24:49;;;;;;;4.15;3.60;;;;;;;;;;5111155;28;20538;-61
2023/04/22 04:27:15;;;;;;;4.47;3.13;;;;;;;;;;5112322;28;20069;-60
2023/04/22 04:29:41;;;;;;;5.95;3.25;;;;;;;;;;5111313;28;20027;-60
2023/04/22 04:32:08;;;;;;;4.63;3.78;;;;;;;;;;5111816;28;20100;-61
2023/04/22 04:34:36;;;;;;;4.28;3.10;;;;;;;;;;5111418;28;20034;-61
2023/04/22 04:37:02;;;;;;;5.47;3.20;;;;;;;;;;5111030;28;20039;-61
2023/04/22 04:39:28;;;;;;;4.20;3.45;;;;;;;;;;5111840;28;20039;-61
2023/04/22 04:41:57;;;;;;;3.67;3.28;;;;;;;;;;5111765;28;20483;-61
2023/04/22 04:44:25;;;;;;;4.00;3.30;;;;;;;;;;5111344;28;20079;-61
2023/04/22 04:46:51;;;;;;;6.38;3.90;;;;;;;;;;5111453;28;20027;-61
2023/04/22 04:49:17;;;;;;;4.00;3.13;;;;;;;;;;5111103;28;20039;-61
2023/04/22 04:51:43;;;;;;;4.43;3.42;;;;;;;;;;5111361;28;20019;-61
2023/04/22 04:54:09;;;;;;;4.57;3.25;;;;;;;;;;5111477;28;20031;-61
2023/04/22 04:56:35;;;;;;;4.63;3.13;;;;;;;;;;5110840;28;20085;-61
2023/04/22 04:59:01;;;;;;;3.92;3.13;;;;;;;;;;5111363;28;20480;-60
2023/04/22 05:01:27;;;;;;;4.43;3.28;;;;;;;;;;5111401;28;20035;-61
2023/04/22 05:03:53;;;;;;;4.18;3.28;;;;;;;;;;5111118;28;20084;-61
2023/04/22 05:06:19;;;;;;;3.35;2.90;;;;;;;;;;5111436;28;20386;-60
2023/04/22 05:08:45;;;;;;;4.20;2.90;;;;;;;;;;5111092;28;20030;-61
2023/04/22 05:11:11;;;;;;;3.17;2.88;;;;;;;;;;5111173;28;20020;-60
2023/04/22 05:13:37;;;;;;;3.30;2.88;;;;;;;;;;5111065;28;20031;-61
2023/04/22 05:16:03;;;;;;;4.68;3.00;;;;;;;;;;5110927;28;20115;-61
2023/04/22 05:18:29;;;;;;;4.88;2.92;;;;;;;;;;5111561;28;20102;-60
2023/04/22 05:20:58;;;;;;;5.35;3.17;;;;;;;;;;5111436;28;20027;-61
2023/04/22 05:23:24;;;;;;;5.47;2.90;;;;;;;;;;5110549;28;20035;-60
2023/04/22 05:25:50;;;;;;;3.95;2.85;;;;;;;;;;5110810;28;20040;-61
2023/04/22 05:28:16;;;;;;;4.00;2.97;;;;;;;;;;5110277;28;20035;-62
2023/04/22 05:30:42;;;;;;;3.70;2.90;;;;;;;;;;5111023;28;20023;-62
2023/04/22 05:33:08;;;;;;;4.10;3.08;;;;;;;;;;5110833;28;20514;-62
2023/04/22 05:35:34;;;;;;;4.57;2.95;;;;;;;;;;5109954;28;20035;-61
2023/04/22 05:38:01;;;;;;;4.30;3.10;;;;;;;;;;5110319;28;20028;-62
2023/04/22 05:40:27;;;;;;;4.28;3.17;;;;;;;;;;5111422;28;20395;-61
2023/04/22 05:42:53;;;;;;;4.10;3.33;;;;;;;;;;5110870;28;20053;-62
2023/04/22 05:45:19;;;;;;;4.38;3.20;;;;;;;;;;5111123;28;20032;-62
2023/04/22 05:47:45;;;;;;;4.07;2.88;;;;;;;;;;5110896;28;20028;-62
2023/04/22 05:50:11;;;;;;;3.50;3.20;;;;;;;;;;5113745;28;20031;-62
2023/04/22 05:52:37;;;;;;;4.05;3.05;;;;;;;;;;5114701;28;20108;-62
2023/04/22 05:55:03;;;;;;;3.47;3.17;;;;;;;;;;5114800;28;20015;-62
2023/04/22 05:57:30;;;;;;;4.20;2.92;;;;;;;;;;5114685;27;20046;-62
2023/04/22 05:59:56;;;;;;;3.55;3.10;;;;;;;;;;5115183;28;20121;-62
2023/04/22 06:02:22;;;;;;;4.35;3.25;;;;;;;;;;5114867;27;20141;-62
2023/04/22 06:04:48;;;;;;;3.65;3.08;;;;;;;;;;5113583;28;20032;-62
2023/04/22 06:07:14;;;;;;;3.83;3.05;;;;;;;;;;5114773;28;20392;-62
2023/04/22 06:09:40;;;;;;;4.28;3.10;;;;;;;;;;5113523;28;20104;-61
2023/04/22 06:12:06;;;;;;;3.85;3.05;;;;;;;;;;5114680;28;20172;-62
2023/04/22 06:14:32;;;;;;;3.72;3.30;;;;;;;;;;5114422;28;20019;-62
2023/04/22 06:16:59;;;;;;;3.67;2.85;;;;;;;;;;5114855;28;20028;-62
2023/04/22 06:19:25;;;;;;;3.60;3.10;;;;;;;;;;5114851;27;20031;-62
2023/04/22 06:21:51;;;;;;;4.07;3.40;;;;;;;;;;5114194;28;20034;-62
2023/04/22 06:24:17;;;;;;;3.10;2.72;;;;;;;;;;5113331;27;20096;-62
2023/04/22 06:26:43;;;;;;;3.63;2.83;;;;;;;;;;5114082;28;20031;-60
2023/04/22 06:29:09;;;;;;;5.20;2.65;;;;;;;;;;5114353;28;20027;-61
2023/04/22 06:31:35;;;;;;;4.80;3.22;;;;;;;;;;5114038;28;20094;-62
2023/04/22 06:34:01;;;;;;;3.30;2.50;;;;;;;;;;5113835;28;20074;-61
2023/04/22 06:36:28;;;;;;;4.20;3.13;;;;;;;;;;5114639;28;20474;-61
2023/04/22 06:38:54;;;;;;;4.85;2.83;;;;;;;;;;5114058;28;20024;-60
2023/04/22 06:41:21;;;;;;;3.97;2.90;;;;;;;;;;5114155;28;20076;-61
2023/04/22 06:43:48;;;;;;;4.53;3.03;;;;;;;;;;5113933;28;20028;-60
2023/04/22 06:46:15;;;;;;;3.80;2.90;;;;;;;;;;5113634;28;20036;-60
2023/04/22 06:48:41;;;;;;;3.17;2.65;;;;;;;;;;5113719;28;20387;-60
2023/04/22 06:51:07;;;;;;;4.82;2.95;;;;;;;;;;5113964;28;20028;-61
2023/04/22 06:53:33;;;;;;;4.50;2.80;;;;;;;;;;5113595;28;20098;-60
2023/04/22 06:55:59;;;;;;;4.10;3.22;;;;;;;;;;5114026;27;20028;-61
2023/04/22 06:58:25;;;;;;;5.00;2.78;;;;;;;;;;5113561;28;20388;-61
2023/04/22 07:00:51;;;;;;;2.92;2.63;;;;;;;;;;5111148;27;20028;-61
2023/04/22 07:03:17;;;;;;;3.75;2.78;;;;;;;;;;5111292;28;20103;-61
2023/04/22 07:05:43;;;;;;;5.43;2.72;;;;;;;;;;5111951;28;20578;-61
2023/04/22 07:08:09;;;;;;;3.05;2.50;;;;;;;;;;5110569;27;20016;-61
2023/04/22 07:10:35;;;;;;;4.30;3.10;;;;;;;;;;5108728;28;20486;-61
2023/04/22 07:13:01;;;;;;;6.53;3.35;;;;;;;;;;5111735;28;20059;-61
2023/04/22 07:15:27;;;;;;;6.68;3.40;;;;;;;;;;5113424;28;20028;-61
2023/04/22 07:17:53;;;;;;;3.10;2.80;;;;;;;;;;5112946;28;20380;-61
2023/04/22 07:20:19;;;;;;;4.40;3.15;;;;;;;;;;5112206;28;20506;-61
2023/04/22 07:22:45;;;;;;;6.93;4.13;;;;;;;;;;5112422;28;20390;-61
2023/04/22 07:25:11;;;;;;;4.05;3.53;;;;;;;;;;5112234;28;20040;-61
2023/04/22 07:27:37;;;;;;;4.15;3.45;;;;;;;;;;5112588;28;20027;-61
2023/04/22 07:30:04;;;;;;;7.47;3.22;;;;;;;;;;5113093;28;20027;-61
2023/04/22 07:32:30;;;;;;;6.80;3.67;;;;;;;;;;5112779;28;20026;-61
2023/04/22 07:34:56;;;;;;;4.75;3.58;;;;;;;;;;5112932;28;20403;-61
2023/04/22 07:37:22;;;;;;;4.40;2.97;;;;;;;;;;5111291;28;20094;-61
2023/04/22 07:39:48;;;;;;;4.65;3.58;;;;;;;;;;5108498;28;20024;-61
2023/04/22 07:42:14;;;;;;;4.28;3.10;;;;;;;;;;5110216;28;20030;-61
2023/04/22 07:44:40;;;;;;;3.88;2.95;;;;;;;;;;5110852;28;20035;-62
2023/04/22 07:47:07;;;;;;;7.53;3.72;;;;;;;;;;5111263;28;20016;-60
2023/04/22 07:49:33;;;;;;;4.57;3.20;;;;;;;;;;5110705;28;20028;-61
2023/04/22 07:51:59;;;;;;;4.88;3.47;;;;;;;;;;5110878;28;20486;-61
2023/04/22 07:54:25;;;;;;;6.97;3.20;;;;;;;;;;5111471;28;20020;-61
2023/04/22 07:56:51;;;;;;;5.10;3.55;;;;;;;;;;5110766;28;20739;-61
2023/04/22 07:59:17;;;;;;;4.32;2.95;;;;;;;;;;5112567;28;20027;-61
2023/04/22 08:01:45;;;;;;;5.05;3.17;;;;;;;;;;5111506;28;20019;-61
2023/04/22 08:04:11;;;;;;;6.70;3.33;;;;;;;;;;5112298;28;20071;-60
2023/04/22 08:06:37;;;;;;;5.35;3.38;;;;;;;;;;5111633;28;20055;-61
2023/04/22 08:09:03;;;;;;;6.00;2.92;;;;;;;;;;5112072;28;20028;-61
2023/04/22 08:11:29;;;;;;;5.05;3.50;;;;;;;;;;5112119;28;20016;-61
2023/04/22 08:13:55;;;;;;;5.10;3.10;;;;;;;;;;5110762;28;20104;-61
2023/04/22 08:16:21;;;;;;;4.85;2.65;;;;;;;;;;5110590;28;20467;-61
2023/04/22 08:18:47;;;;;;;5.75;3.13;;;;;;;;;;5110196;28;20031;-61
2023/04/22 08:21:13;;;;;;;4.05;2.83;;;;;;;;;;5110373;28;20027;-60
2023/04/22 08:23:39;;;;;;;7.20;3.25;;;;;;;;;;5110060;28;20035;-62
2023/04/22 08:26:07;;;;;;;4.25;3.10;;;;;;;;;;5111274;28;20032;-61
2023/04/22 08:28:33;;;;;;;10.23;3.92;;;;;;;;;;5111842;28;20043;-61
2023/04/22 08:30:59;;;;;;;4.45;2.95;;;;;;;;;;5112149;28;20024;-61
2023/04/22 08:33:25;;;;;;;6.15;3.20;;;;;;;;;;5112136;28;20115;-61
2023/04/22 08:35:51;;;;;;;3.35;2.85;;;;;;;;;;5111703;28;20054;-61
2023/04/22 08:38:17;;;;;;;3.97;2.75;;;;;;;;;;5110359;28;20110;-60
2023/04/22 08:40:43;;;;;;;3.60;3.00;;;;;;;;;;5111028;28;20024;-60
2023/04/22 08:43:09;;;;;;;3.50;2.85;;;;;;;;;;5111752;28;20031;-60
2023/04/22 08:45:39;;;;;;;4.80;3.10;;;;;;;;;;5110763;28;20480;-61
2023/04/22 08:48:06;;;;;;;4.80;2.97;;;;;;;;;;5111544;28;20502;-61
2023/04/22 08:50:32;;;;;;;4.22;3.00;;;;;;;;;;5111588;28;20467;-61
2023/04/22 08:52:58;;;;;;;3.42;2.83;;;;;;;;;;5112006;28;20034;-60
2023/04/22 08:55:25;;;;;;;4.05;2.78;;;;;;;;;;5111240;28;20479;-61
2023/04/22 08:57:51;;;;;;;4.30;2.85;;;;;;;;;;5111269;28;20028;-61
2023/04/22 09:00:18;;;;;;;5.20;3.15;;;;;;;;;;5111525;28;20058;-61
2023/04/22 09:02:44;;;;;;;5.75;2.78;;;;;;;;;;5110074;28;20035;-61
2023/04/22 09:05:11;;;;;;;4.82;3.53;;;;;;;;;;5110647;28;20031;-61
2023/04/22 09:07:38;;;;;;;5.13;2.97;;;;;;;;;;5110877;28;20024;-61
2023/04/22 09:10:04;;;;;;;6.20;2.80;;;;;;;;;;5111554;28;20080;-61
2023/04/22 09:12:30;;;;;;;4.70;3.35;;;;;;;;;;5110188;28;20387;-61
2023/04/22 09:14:56;;;;;;;8.55;2.75;;;;;;;;;;5110487;28;20023;-60
2023/04/22 09:17:32;;;;;;;7.95;2.95;;;;;;;;;;5111169;28;20050;-61
2023/04/22 09:19:59;;;;;;;4.60;2.97;;;;;;;;;;5111526;28;20024;-61
2023/04/22 09:22:26;;;;;;;7.32;3.38;;;;;;;;;;5110389;28;20479;-61
2023/04/22 09:24:52;;;;;;;5.28;3.10;;;;;;;;;;5112282;28;20415;-61
2023/04/22 09:27:18;;;;;;;4.68;2.88;;;;;;;;;;5113790;28;20020;-61
2023/04/22 09:29:48;;;;;;;4.50;2.78;;;;;;;;;;5114230;28;20023;-65
2023/04/22 09:32:14;;;;;;;3.20;2.70;;;;;;;;;;5114252;28;20016;-61
2023/04/22 09:34:50;;;;;;;4.70;2.95;;;;;;;;;;5113435;28;20471;-64
2023/04/22 09:37:25;;;;;;;6.30;3.05;;;;;;;;;;5111091;28;20032;-60
2023/04/22 09:39:52;;;;;;;5.20;2.65;;;;;;;;;;5112860;28;20028;-60
2023/04/22 09:42:18;;;;;;;6.50;3.55;;;;;;;;;;5110996;28;20034;-60
2023/04/22 09:44:51;;;;;;;8.05;2.80;;;;;;;;;;5113128;27;20046;-62
2023/04/22 09:47:17;;;;;;;6.28;3.38;;;;;;;;;;5111484;28;20022;-62
2023/04/22 09:49:49;;;;;;;7.40;3.13;;;;;;;;;;5114488;28;20107;-63
2023/04/22 09:52:28;;;;;;;5.30;3.00;;;;;;;;;;5114596;28;20411;-65
2023/04/22 09:54:54;;;;;;;5.07;3.15;;;;;;;;;;5115759;27;20031;-61
2023/04/22 09:57:21;;;;;;;5.03;3.33;;;;;;;;;;5114226;28;20148;-60
2023/04/22 09:59:51;;;;;;;7.35;3.08;;;;;;;;;;5113993;28;20026;-61
2023/04/22 10:02:17;;;;;;;5.10;3.53;;;;;;;;;;5114308;28;20035;-60
2023/04/22 10:04:43;;;;;;;5.95;3.17;;;;;;;;;;5114368;28;20032;-60
2023/04/22 10:07:09;;;;;;;5.10;3.33;;;;;;;;;;5114671;27;20027;-61
2023/04/22 10:09:35;;;;;;;4.50;3.35;;;;;;;;;;5114220;27;20024;-61
2023/04/22 10:12:02;;;;;;;7.85;4.00;;;;;;;;;;5113196;28;20031;-60
2023/04/22 10:14:28;;;;;;;5.18;3.00;;;;;;;;;;5114175;28;20546;-60
2023/04/22 10:16:57;;;;;;;5.13;3.60;;;;;;;;;;5114268;28;20028;-61
2023/04/22 10:19:24;;;;;;;4.70;2.70;;;;;;;;;;5114084;28;20028;-61
2023/04/22 10:21:53;;;;;;;6.68;3.65;;;;;;;;;;5113541;28;20047;-62
2023/04/22 10:24:20;;;;;;;7.65;3.42;;;;;;;;;;5114074;28;20104;-61
2023/04/22 10:26:58;;;;;;;5.25;3.72;;;;;;;;;;5114045;28;20019;-60
2023/04/22 10:29:34;;;;;;;4.70;3.80;;;;;;;;;;5113570;28;20116;-60
2023/04/22 10:32:04;;;;;;;4.70;3.35;;;;;;;;;;5114303;28;20020;-60
2023/04/22 10:34:31;;;;;;;7.57;3.72;;;;;;;;;;5113283;28;20110;-60
2023/04/22 10:37:07;;;;;;;6.03;3.88;;;;;;;;;;5113418;28;20015;-60
2023/04/22 10:39:33;;;;;;;8.50;4.65;;;;;;;;;;5113668;28;20027;-60
2023/04/22 10:42:02;;;;;;;9.65;5.60;;;;;;;;;;5113505;28;20114;-60
2023/04/22 10:44:29;;;;;;;8.65;5.32;;;;;;;;;;5113697;28;20114;-61
2023/04/22 10:46:56;;;;;;;11.95;5.88;;;;;;;;;;5114084;28;20024;-60
2023/04/22 10:49:23;;;;;;;9.32;5.93;;;;;;;;;;5113312;28;20059;-60
2023/04/22 10:51:53;;;;;;;12.52;7.03;;;;;;;;;;5111934;28;20439;-60
2023/04/22 10:54:28;;;;;;;9.07;5.85;;;;;;;;;;5112650;28;20467;-60
2023/04/22 10:57:21;;;;;;;10.13;6.60;;;;;;;;;;5113518;28;20027;-60
2023/04/22 10:59:54;;;;;;;9.45;6.10;;;;;;;;;;5111171;28;20044;-61
2023/04/22 11:02:20;;;;;;;9.15;5.90;;;;;;;;;;5113322;28;20088;-60
2023/04/22 11:04:47;;;;;;;8.35;5.78;;;;;;;;;;5112729;28;20046;-60
2023/04/22 11:07:21;;;;;;;8.43;5.50;;;;;;;;;;5113499;28;20102;-60
2023/04/22 11:09:51;;;;;;;8.43;6.00;;;;;;;;;;5113168;28;20032;-60
2023/04/22 11:12:38;;;;;;;9.32;5.32;;;;;;;;;;5113361;28;20024;-60
2023/04/22 11:15:07;;;;;;;8.00;5.38;;;;;;;;;;5107310;28;20036;-60
2023/04/22 11:17:33;;;;;;;8.73;5.75;;;;;;;;;;5112403;27;20044;-60
2023/04/22 11:19:59;;;;;;;9.45;4.90;;;;;;;;;;5113375;28;20038;-60
2023/04/22 11:22:25;;;;;;;8.45;5.60;;;;;;;;;;5113474;28;20102;-59
2023/04/22 11:24:55;;;;;;;7.05;5.22;;;;;;;;;;5112901;28;20043;-60
2023/04/22 11:27:25;;;;;;;9.20;5.35;;;;;;;;;;5113122;28;20027;-60
2023/04/22 11:30:10;;;;;;;10.23;5.35;;;;;;;;;;5112719;28;20027;-60
2023/04/22 11:32:37;;;;;;;7.32;4.65;;;;;;;;;;5111950;28;20552;-61
2023/04/22 11:35:07;;;;;;;7.68;4.88;;;;;;;;;;5112969;28;20023;-60
2023/04/22 11:37:40;;;;;;;6.43;4.40;;;;;;;;;;5112680;28;20023;-60
2023/04/22 11:40:07;;;;;;;7.95;4.78;;;;;;;;;;5112806;28;20055;-60
2023/04/22 11:42:34;;;;;;;9.93;5.05;;;;;;;;;;5112503;28;20088;-59
2023/04/22 11:45:00;;;;;;;8.15;5.22;;;;;;;;;;5112512;28;20043;-60
2023/04/22 11:47:29;;;;;;;6.50;4.22;;;;;;;;;;5111940;28;20024;-59
2023/04/22 11:49:56;;;;;;;7.68;4.95;;;;;;;;;;5112364;28;20411;-60
2023/04/22 11:52:22;;;;;;;7.57;4.20;;;;;;;;;;5112022;28;20031;-60
2023/04/22 11:54:48;;;;;;;6.38;4.20;;;;;;;;;;5112289;28;20032;-60
2023/04/22 11:57:15;;;;;;;6.53;4.35;;;;;;;;;;5111894;28;20024;-59
2023/04/22 11:59:41;;;;;;;10.65;5.00;;;;;;;;;;5112122;28;20034;-59
2023/04/22 12:02:08;;;;;;;8.68;4.90;;;;;;;;;;5112417;28;20051;-60
2023/04/22 12:04:40;;;;;;;6.18;3.92;;;;;;;;;;5112062;28;20112;-60
2023/04/22 12:07:06;;;;;;;6.72;4.38;;;;;;;;;;5112323;28;20026;-60
2023/04/22 12:09:35;;;;;;;6.05;4.10;;;;;;;;;;5111411;28;20059;-60
2023/04/22 12:12:03;;;;;;;6.00;4.25;;;;;;;;;;5110180;28;20046;-60
2023/04/22 12:14:32;;;;;;;5.63;4.07;;;;;;;;;;5111392;28;20063;-60
2023/04/22 12:16:58;;;;;;;7.93;3.75;;;;;;;;;;5112058;28;20031;-61
2023/04/22 12:19:25;;;;;;;7.40;3.70;;;;;;;;;;5112274;28;20050;-60
2023/04/22 12:21:55;;;;;;;4.75;4.00;;;;;;;;;;5111356;28;20028;-59
2023/04/22 12:24:28;;;;;;;7.22;3.95;;;;;;;;;;5111890;28;20446;-60
2023/04/22 12:26:55;;;;;;;5.53;3.67;;;;;;;;;;5111387;28;20069;-61
2023/04/22 12:29:31;;;;;;;7.68;4.13;;;;;;;;;;5109978;28;20024;-59
2023/04/22 12:31:57;;;;;;;5.20;4.00;;;;;;;;;;5108656;28;20395;-60
2023/04/22 12:34:23;;;;;;;5.13;3.72;;;;;;;;;;5109458;28;20106;-59
2023/04/22 12:36:49;;;;;;;6.50;4.30;;;;;;;;;;5109556;28;20027;-59
2023/04/22 12:39:15;;;;;;;8.30;4.35;;;;;;;;;;5110582;28;20027;-59
2023/04/22 12:41:41;;;;;;;5.78;4.18;;;;;;;;;;5110285;28;20046;-59
2023/04/22 12:44:07;;;;;;;6.07;4.32;;;;;;;;;;5111661;28;20035;-59
2023/04/22 12:46:35;;;;;;;4.80;3.38;;;;;;;;;;5115755;27;20110;-60
2023/04/22 12:49:01;;;;;;;4.50;3.28;;;;;;;;;;5110372;28;20051;-60
2023/04/22 12:51:27;;;;;;;7.03;3.83;;;;;;;;;;5111757;28;20051;-59
2023/04/22 12:53:53;;;;;;;6.63;4.03;;;;;;;;;;5111266;28;20016;-60
2023/04/22 12:56:19;;;;;;;5.32;3.67;;;;;;;;;;5111366;28;20606;-60
2023/04/22 12:58:45;;;;;;;4.57;3.45;;;;;;;;;;5109955;28;20123;-60
2023/04/22 13:01:11;;;;;;;6.00;3.75;;;;;;;;;;5110026;28;20028;-59
2023/04/22 13:03:37;;;;;;;4.78;3.58;;;;;;;;;;5110130;28;20398;-60
2023/04/22 13:06:03;;;;;;;5.18;3.65;;;;;;;;;;5111164;28;20034;-59
2023/04/22 13:08:29;;;;;;;6.45;3.33;;;;;;;;;;5110688;28;20031;-61
2023/04/22 13:10:55;;;;;;;5.38;3.72;;;;;;;;;;5110385;28;20031;-60
2023/04/22 13:13:21;;;;;;;5.57;3.80;;;;;;;;;;5110463;28;20023;-60
2023/04/22 13:15:52;;;;;;;4.25;3.50;;;;;;;;;;5109348;28;20028;-60
2023/04/22 13:18:18;;;;;;;7.43;3.75;;;;;;;;;;5109103;28;20027;-60
2023/04/22 13:20:44;;;;;;;5.05;3.40;;;;;;;;;;5112515;28;20407;-60
2023/04/22 13:23:11;;;;;;;6.85;3.78;;;;;;;;;;5109742;28;20019;-60
2023/04/22 13:25:37;;;;;;;6.10;4.00;;;;;;;;;;5109441;28;20065;-62
2023/04/22 13:28:03;;;;;;;5.32;3.53;;;;;;;;;;5109990;28;20016;-62
2023/04/22 13:30:29;;;;;;;5.65;3.20;;;;;;;;;;5110210;28;20419;-61
2023/04/22 13:32:55;;;;;;;5.15;3.63;;;;;;;;;;5110758;28;20059;-62
2023/04/22 13:35:21;;;;;;;6.38;3.40;;;;;;;;;;5110464;28;20484;-60
2023/04/22 13:37:47;;;;;;;4.97;3.67;;;;;;;;;;5110956;28;20235;-62
2023/04/22 13:40:13;;;;;;;8.65;3.90;;;;;;;;;;5109431;28;20028;-62
2023/04/22 13:42:39;;;;;;;5.63;3.70;;;;;;;;;;5108768;28;20391;-61
2023/04/22 13:45:06;;;;;;;8.32;3.58;;;;;;;;;;5110184;28;20047;-62
2023/04/22 13:47:32;;;;;;;8.43;3.38;;;;;;;;;;5110605;28;20027;-61
2023/04/22 13:49:59;;;;;;;6.82;3.80;;;;;;;;;;5111621;28;20369;-61
2023/04/22 13:52:25;;;;;;;6.68;3.53;;;;;;;;;;5110107;28;20096;-61
2023/04/22 13:54:53;;;;;;;6.05;3.45;;;;;;;;;;5110214;28;20055;-63
2023/04/22 13:57:19;;;;;;;6.55;3.67;;;;;;;;;;5110945;28;20936;-63
2023/04/22 13:59:45;;;;;;;4.95;3.50;;;;;;;;;;5110956;28;20031;-62
2023/04/22 14:02:11;;;;;;;5.82;3.38;;;;;;;;;;5111176;28;20111;-63
2023/04/22 14:04:37;;;;;;;4.93;3.78;;;;;;;;;;5110677;28;20118;-62
2023/04/22 14:07:03;;;;;;;3.72;3.20;;;;;;;;;;5110947;28;20079;-64
2023/04/22 14:09:29;;;;;;;6.45;3.13;;;;;;;;;;5109679;28;20476;-64
2023/04/22 14:11:55;;;;;;;5.78;4.15;;;;;;;;;;5114989;28;20023;-63
2023/04/22 14:14:21;;;;;;;4.13;3.20;;;;;;;;;;5114569;28;20036;-63
2023/04/22 14:16:47;;;;;;;5.53;3.83;;;;;;;;;;5114446;28;20030;-62
2023/04/22 14:19:13;;;;;;;5.40;3.85;;;;;;;;;;5114606;28;20024;-64
2023/04/22 14:21:40;;;;;;;6.22;4.07;;;;;;;;;;5113915;27;20058;-63
2023/04/22 14:24:06;;;;;;;4.97;3.90;;;;;;;;;;5114341;28;20084;-63
2023/04/22 14:26:32;;;;;;;5.22;3.55;;;;;;;;;;5114058;28;20015;-63
2023/04/22 14:28:58;;;;;;;4.63;3.83;;;;;;;;;;5114721;28;20030;-64
2023/04/22 14:31:24;;;;;;;5.35;3.55;;;;;;;;;;5114591;27;20420;-64
2023/04/22 14:33:50;;;;;;;4.95;3.95;;;;;;;;;;5113917;28;20076;-63
2023/04/22 14:36:17;;;;;;;4.97;4.13;;;;;;;;;;5114083;28;20020;-64
2023/04/22 14:38:43;;;;;;;4.70;3.88;;;;;;;;;;5113873;28;20391;-64
2023/04/22 14:41:09;;;;;;;5.32;4.20;;;;;;;;;;5114176;27;20020;-64